createdAt,value
2023-03-10T00:00:00.458Z,9.98
2023-03-10T00:02:30.431Z,9.93
2023-03-10T00:04:57.070Z,9.87
2023-03-10T00:07:23.502Z,9.88
2023-03-10T00:09:50.081Z,9.88
2023-03-10T00:12:16.602Z,9.90
2023-03-10T00:14:43.278Z,9.94
2023-03-10T00:17:09.750Z,9.94
2023-03-10T00:19:36.203Z,9.98
2023-03-10T00:22:03.811Z,9.86
2023-03-10T00:24:30.317Z,9.86
2023-03-10T00:26:56.812Z,9.84
2023-03-10T00:29:23.337Z,9.81
2023-03-10T00:31:49.789Z,9.80
2023-03-10T00:34:16.551Z,9.81
2023-03-10T00:36:43.096Z,9.89
2023-03-10T00:39:11.869Z,9.83
2023-03-10T00:41:41.236Z,9.83
2023-03-10T00:44:09.467Z,9.80
2023-03-10T00:46:38.547Z,9.80
2023-03-10T00:49:06.887Z,9.77
2023-03-10T00:51:34.102Z,9.76
2023-03-10T00:54:02.434Z,9.72
2023-03-10T00:56:30.400Z,9.72
2023-03-10T00:58:59.918Z,9.74
2023-03-10T01:01:32.767Z,9.76
2023-03-10T01:04:02.096Z,9.63
2023-03-10T01:06:28.624Z,9.49
2023-03-10T01:08:55.587Z,9.43
2023-03-10T01:11:25.228Z,9.42
2023-03-10T01:13:52.878Z,9.35
2023-03-10T01:16:19.489Z,9.26
2023-03-10T01:18:45.957Z,9.22
2023-03-10T01:21:18.671Z,9.14
2023-03-10T01:23:45.086Z,9.10
2023-03-10T01:26:11.597Z,9.10
2023-03-10T01:28:38.227Z,9.12
2023-03-10T01:31:07.703Z,9.16
2023-03-10T01:33:35.401Z,9.21
2023-03-10T01:36:06.966Z,9.20
2023-03-10T01:38:33.379Z,9.18
2023-03-10T01:40:59.796Z,9.11
2023-03-10T01:43:31.468Z,9.12
2023-03-10T01:46:00.839Z,9.05
2023-03-10T01:48:29.876Z,9.04
2023-03-10T01:50:57.637Z,8.93
2023-03-10T01:53:27.190Z,8.88
2023-03-10T01:55:58.968Z,8.85
2023-03-10T01:58:29.981Z,8.93
2023-03-10T02:00:56.479Z,8.88
2023-03-10T02:03:27.037Z,8.91
2023-03-10T02:06:06.141Z,8.93
2023-03-10T02:08:44.407Z,8.93
2023-03-10T02:11:14.369Z,8.93
2023-03-10T02:13:40.841Z,8.93
2023-03-10T02:16:08.174Z,8.95
2023-03-10T02:18:34.742Z,9.00
2023-03-10T02:21:12.724Z,9.01
2023-03-10T02:24:01.322Z,9.10
2023-03-10T02:26:53.759Z,9.12
2023-03-10T02:29:32.698Z,9.12
2023-03-10T02:32:01.573Z,9.15
2023-03-10T02:34:31.523Z,9.16
2023-03-10T02:36:57.947Z,9.17
2023-03-10T02:39:24.418Z,9.16
2023-03-10T02:41:52.387Z,9.27
2023-03-10T02:44:21.715Z,9.24
2023-03-10T02:46:48.657Z,9.22
2023-03-10T02:49:17.267Z,9.21
2023-03-10T02:51:46.193Z,9.23
2023-03-10T02:54:13.129Z,9.22
2023-03-10T02:56:40.801Z,9.31
2023-03-10T02:59:08.096Z,9.12
2023-03-10T03:01:35.133Z,9.20
2023-03-10T03:04:02.272Z,9.13
2023-03-10T03:06:29.313Z,9.08
2023-03-10T03:08:56.506Z,9.13
2023-03-10T03:11:23.165Z,9.08
2023-03-10T03:13:49.596Z,9.11
2023-03-10T03:16:16.151Z,9.00
2023-03-10T03:18:42.681Z,8.79
2023-03-10T03:21:18.275Z,8.67
2023-03-10T03:23:46.954Z,8.60
2023-03-10T03:26:19.153Z,8.56
2023-03-10T03:28:45.827Z,8.54
2023-03-10T03:31:17.555Z,8.51
2023-03-10T03:33:44.037Z,8.54
2023-03-10T03:36:10.718Z,8.52
2023-03-10T03:38:37.639Z,8.56
2023-03-10T03:41:04.975Z,8.67
2023-03-10T03:43:31.505Z,8.76
2023-03-10T03:45:58.015Z,8.69
2023-03-10T03:48:24.476Z,8.72
2023-03-10T03:50:50.996Z,8.71
2023-03-10T03:53:17.465Z,8.71
2023-03-10T03:55:44.086Z,8.86
2023-03-10T03:58:10.480Z,8.84
2023-03-10T04:00:38.535Z,8.93
2023-03-10T04:03:05.248Z,8.89
2023-03-10T04:05:31.770Z,8.94
2023-03-10T04:07:59.174Z,9.01
2023-03-10T04:10:27.114Z,8.92
2023-03-10T04:12:54.133Z,9.07
2023-03-10T04:15:20.810Z,8.99
2023-03-10T04:17:47.273Z,9.00
2023-03-10T04:20:14.262Z,8.95
2023-03-10T04:22:41.134Z,8.92
2023-03-10T04:25:08.969Z,8.95
2023-03-10T04:27:38.153Z,8.97
2023-03-10T04:30:07.081Z,9.09
2023-03-10T04:32:37.020Z,9.01
2023-03-10T04:35:04.915Z,9.19
2023-03-10T04:37:31.388Z,8.94
2023-03-10T04:39:57.941Z,9.01
2023-03-10T04:42:26.542Z,8.94
2023-03-10T04:44:52.983Z,8.95
2023-03-10T04:47:19.416Z,8.99
2023-03-10T04:49:45.863Z,8.88
2023-03-10T04:52:12.678Z,8.96
2023-03-10T04:54:41.069Z,9.01
2023-03-10T04:57:07.577Z,9.16
2023-03-10T04:59:34.016Z,9.03
2023-03-10T05:02:00.628Z,8.99
2023-03-10T05:04:27.209Z,8.97
2023-03-10T05:06:53.680Z,8.97
2023-03-10T05:09:22.740Z,8.99
2023-03-10T05:11:49.254Z,9.05
2023-03-10T05:14:16.362Z,9.12
2023-03-10T05:16:43.700Z,9.16
2023-03-10T05:19:10.217Z,9.31
2023-03-10T05:21:36.640Z,9.29
2023-03-10T05:24:03.182Z,9.33
2023-03-10T05:26:32.707Z,9.31
2023-03-10T05:29:00.804Z,9.46
2023-03-10T05:31:27.590Z,9.30
2023-03-10T05:33:54.784Z,9.41
2023-03-10T05:36:21.975Z,9.50
2023-03-10T05:38:48.886Z,9.37
2023-03-10T05:41:16.057Z,9.25
2023-03-10T05:43:42.618Z,9.28
2023-03-10T05:46:09.577Z,8.95
2023-03-10T05:48:36.113Z,8.99
2023-03-10T05:51:08.780Z,8.98
2023-03-10T05:53:36.678Z,8.91
2023-03-10T05:56:29.307Z,8.82
2023-03-10T05:58:55.726Z,8.95
2023-03-10T06:01:22.174Z,8.80
2023-03-10T06:03:48.799Z,8.93
2023-03-10T06:06:15.344Z,8.79
2023-03-10T06:08:42.990Z,8.49
2023-03-10T06:11:10.013Z,8.60
2023-03-10T06:13:36.507Z,8.82
2023-03-10T06:16:05.916Z,9.10
2023-03-10T06:18:33.359Z,9.02
2023-03-10T06:21:03.755Z,8.99
2023-03-10T06:23:30.241Z,8.83
2023-03-10T06:26:03.120Z,8.67
2023-03-10T06:28:33.342Z,8.84
2023-03-10T06:31:09.272Z,8.97
2023-03-10T06:33:36.158Z,9.05
2023-03-10T06:36:02.896Z,9.06
2023-03-10T06:38:30.474Z,9.25
2023-03-10T06:40:57.631Z,9.40
2023-03-10T06:43:24.445Z,9.40
2023-03-10T06:45:51.625Z,9.49
2023-03-10T06:48:18.320Z,9.66
2023-03-10T06:50:48.194Z,9.67
2023-03-10T06:53:16.401Z,9.79
2023-03-10T06:55:43.016Z,9.85
2023-03-10T06:58:09.642Z,9.93
2023-03-10T07:00:36.357Z,9.87
2023-03-10T07:03:02.776Z,9.87
2023-03-10T07:05:29.332Z,9.82
2023-03-10T07:07:56.128Z,9.87
2023-03-10T07:10:23.127Z,9.94
2023-03-10T07:12:56.643Z,9.77
2023-03-10T07:15:23.107Z,9.45
2023-03-10T07:17:49.707Z,9.70
2023-03-10T07:20:16.365Z,9.84
2023-03-10T07:22:42.978Z,9.81
2023-03-10T07:25:09.844Z,9.79
2023-03-10T07:27:36.371Z,9.61
2023-03-10T07:30:06.121Z,9.36
2023-03-10T07:32:32.757Z,8.95
2023-03-10T07:34:59.336Z,8.83
2023-03-10T07:37:25.789Z,8.74
2023-03-10T07:39:54.464Z,8.68
2023-03-10T07:42:21.477Z,8.75
2023-03-10T07:44:48.079Z,8.84
2023-03-10T07:47:14.694Z,8.83
2023-03-10T07:49:46.481Z,8.95
2023-03-10T07:52:14.681Z,9.24
2023-03-10T07:54:41.777Z,9.46
2023-03-10T07:57:08.280Z,9.76
2023-03-10T07:59:34.759Z,9.95
2023-03-10T08:02:01.230Z,9.88
2023-03-10T08:04:28.125Z,9.90
2023-03-10T08:06:54.881Z,9.98
2023-03-10T08:09:21.377Z,10.55
2023-03-10T08:11:47.939Z,10.52
2023-03-10T08:14:15.435Z,10.64
2023-03-10T08:16:41.984Z,10.49
2023-03-10T08:19:08.626Z,11.34
2023-03-10T08:21:35.142Z,10.80
2023-03-10T08:24:05.203Z,10.97
2023-03-10T08:26:31.687Z,10.84
2023-03-10T08:28:58.236Z,10.75
2023-03-10T08:31:24.715Z,10.68
2023-03-10T08:33:55.904Z,11.02
2023-03-10T08:36:24.207Z,10.77
2023-03-10T08:38:52.282Z,9.95
2023-03-10T08:41:23.826Z,9.78
2023-03-10T08:43:51.263Z,9.59
2023-03-10T08:46:19.607Z,9.47
2023-03-10T08:48:48.065Z,9.45
2023-03-10T08:51:16.243Z,9.49
2023-03-10T08:53:46.808Z,9.51
2023-03-10T08:56:14.622Z,9.60
2023-03-10T08:58:41.637Z,9.51
2023-03-10T09:01:08.078Z,9.83
2023-03-10T09:03:39.694Z,9.76
2023-03-10T09:06:07.446Z,10.13
2023-03-10T09:08:34.507Z,10.59
2023-03-10T09:11:01.648Z,10.39
2023-03-10T09:13:28.215Z,10.29
2023-03-10T09:15:54.748Z,10.15
2023-03-10T09:18:21.247Z,10.38
2023-03-10T09:20:47.793Z,10.75
2023-03-10T09:23:15.380Z,11.62
2023-03-10T09:25:42.317Z,11.83
2023-03-10T09:28:11.035Z,11.75
2023-03-10T09:30:40.258Z,12.32
2023-03-10T09:33:08.871Z,11.88
2023-03-10T09:35:39.382Z,12.42
2023-03-10T09:38:08.428Z,11.36
2023-03-10T09:40:37.339Z,11.34
2023-03-10T09:43:04.527Z,10.87
2023-03-10T09:45:36.216Z,10.81
2023-03-10T09:48:11.773Z,10.82
2023-03-10T09:50:46.202Z,11.08
2023-03-10T09:53:24.929Z,11.45
2023-03-10T09:55:51.951Z,11.30
2023-03-10T09:58:30.305Z,10.90
2023-03-10T10:00:58.503Z,10.61
2023-03-10T10:03:50.124Z,10.47
2023-03-10T10:06:27.981Z,10.74
2023-03-10T10:09:05.695Z,10.76
2023-03-10T10:11:34.172Z,10.76
2023-03-10T10:14:28.872Z,10.38
2023-03-10T10:17:20.082Z,10.87
2023-03-10T10:19:48.405Z,10.20
2023-03-10T10:22:25.477Z,9.87
2023-03-10T10:25:18.160Z,10.87
2023-03-10T10:27:45.583Z,11.84
2023-03-10T10:30:32.944Z,12.92
2023-03-10T10:33:11.395Z,11.91
2023-03-10T10:35:45.152Z,11.66
2023-03-10T10:38:11.631Z,11.10
2023-03-10T10:41:04.587Z,11.58
2023-03-10T10:43:44.506Z,12.12
2023-03-10T10:46:13.870Z,12.19
2023-03-10T10:48:42.931Z,12.20
2023-03-10T10:51:29.617Z,12.07
2023-03-10T10:54:02.275Z,12.24
2023-03-10T10:56:30.237Z,12.24
2023-03-10T10:59:22.890Z,11.32
2023-03-10T11:02:20.515Z,11.69
2023-03-10T11:04:47.615Z,13.07
2023-03-10T11:07:20.079Z,12.99
2023-03-10T11:09:47.922Z,13.64
2023-03-10T11:12:30.175Z,13.30
2023-03-10T11:15:11.288Z,12.85
2023-03-10T11:17:43.616Z,13.78
2023-03-10T11:20:29.751Z,14.62
2023-03-10T11:23:14.643Z,14.78
2023-03-10T11:25:55.173Z,15.02
2023-03-10T11:28:39.257Z,15.86
2023-03-10T11:31:17.165Z,15.83
2023-03-10T11:34:31.353Z,13.58
2023-03-10T11:37:26.186Z,12.50
2023-03-10T11:40:18.135Z,13.33
2023-03-10T11:42:55.311Z,12.68
2023-03-10T11:45:27.819Z,12.23
2023-03-10T11:48:22.081Z,12.46
2023-03-10T11:51:14.552Z,11.96
2023-03-10T11:53:45.516Z,11.71
2023-03-10T11:56:14.867Z,11.86
2023-03-10T11:58:53.451Z,12.19
2023-03-10T12:01:26.155Z,12.13
2023-03-10T12:04:11.386Z,11.74
2023-03-10T12:07:03.600Z,11.46
2023-03-10T12:09:43.933Z,11.14
2023-03-10T12:12:29.814Z,11.44
2023-03-10T12:15:00.217Z,11.44
2023-03-10T12:17:27.190Z,11.14
2023-03-10T12:20:13.067Z,11.47
2023-03-10T12:22:47.345Z,11.42
2023-03-10T12:25:29.331Z,11.08
2023-03-10T12:28:20.816Z,10.83
2023-03-10T12:30:51.790Z,11.00
2023-03-10T12:33:30.164Z,10.89
2023-03-10T12:36:27.699Z,11.48
2023-03-10T12:38:57.373Z,12.01
2023-03-10T12:41:26.693Z,12.15
2023-03-10T12:44:06.027Z,12.05
2023-03-10T12:46:48.840Z,11.23
2023-03-10T12:49:40.726Z,10.76
2023-03-10T12:52:07.173Z,10.25
2023-03-10T12:54:39.131Z,10.13
2023-03-10T12:57:16.960Z,9.55
2023-03-10T12:59:56.395Z,9.46
2023-03-10T13:02:33.568Z,9.30
2023-03-10T13:05:04.480Z,9.41
2023-03-10T13:07:31.426Z,9.22
2023-03-10T13:09:59.133Z,9.18
2023-03-10T13:12:31.015Z,9.19
2023-03-10T13:15:00.091Z,9.05
2023-03-10T13:17:29.610Z,9.03
2023-03-10T13:20:19.890Z,9.01
2023-03-10T13:22:58.414Z,9.05
2023-03-10T13:25:26.333Z,9.17
2023-03-10T13:27:53.670Z,8.92
2023-03-10T13:30:22.665Z,9.00
2023-03-10T13:32:58.292Z,8.96
2023-03-10T13:35:36.646Z,8.73
2023-03-10T13:38:29.520Z,8.71
2023-03-10T13:41:02.078Z,8.43
2023-03-10T13:43:42.608Z,8.43
2023-03-10T13:46:29.054Z,8.50
2023-03-10T13:49:03.527Z,8.74
2023-03-10T13:51:32.774Z,8.76
2023-03-10T13:54:21.200Z,8.57
2023-03-10T13:56:50.920Z,8.66
2023-03-10T13:59:23.220Z,8.48
2023-03-10T14:01:55.726Z,8.33
2023-03-10T14:04:51.400Z,8.17
2023-03-10T14:07:28.075Z,8.23
2023-03-10T14:10:03.494Z,8.36
2023-03-10T14:12:39.621Z,8.45
2023-03-10T14:15:14.897Z,8.45
2023-03-10T14:18:03.593Z,8.39
2023-03-10T14:20:32.164Z,8.37
2023-03-10T14:22:59.304Z,8.29
2023-03-10T14:25:26.106Z,8.31
2023-03-10T14:28:11.341Z,8.36
2023-03-10T14:30:38.941Z,8.48
2023-03-10T14:33:12.397Z,8.48
2023-03-10T14:35:39.734Z,8.42
2023-03-10T14:38:06.189Z,8.37
2023-03-10T14:40:37.502Z,8.46
2023-03-10T14:43:04.331Z,8.25
2023-03-10T14:45:31.966Z,8.22
2023-03-10T14:48:01.424Z,8.28
2023-03-10T14:50:29.362Z,8.30
2023-03-10T14:52:56.179Z,8.43
2023-03-10T14:55:22.694Z,8.36
2023-03-10T14:58:00.870Z,8.47
2023-03-10T15:00:27.838Z,8.43
2023-03-10T15:02:54.374Z,8.41
2023-03-10T15:05:27.576Z,8.30
2023-03-10T15:07:56.270Z,8.14
2023-03-10T15:10:23.304Z,8.06
2023-03-10T15:12:52.379Z,8.07
2023-03-10T15:15:22.723Z,8.12
2023-03-10T15:17:49.755Z,7.96
2023-03-10T15:20:16.419Z,7.95
2023-03-10T15:22:44.660Z,7.82
2023-03-10T15:25:12.696Z,7.87
2023-03-10T15:27:39.486Z,7.88
2023-03-10T15:30:07.199Z,7.91
2023-03-10T15:32:34.876Z,7.82
2023-03-10T15:35:01.390Z,7.75
2023-03-10T15:37:27.917Z,7.85
2023-03-10T15:39:54.398Z,7.58
2023-03-10T15:42:20.866Z,7.44
2023-03-10T15:44:50.629Z,7.30
2023-03-10T15:47:17.172Z,7.32
2023-03-10T15:49:43.667Z,7.12
2023-03-10T15:52:10.162Z,6.92
2023-03-10T15:54:36.673Z,6.96
2023-03-10T15:57:03.299Z,6.94
2023-03-10T15:59:29.771Z,6.88
2023-03-10T16:01:56.280Z,6.87
2023-03-10T16:04:23.666Z,6.81
2023-03-10T16:06:50.248Z,6.76
2023-03-10T16:09:16.831Z,6.70
2023-03-10T16:11:43.337Z,6.58
2023-03-10T16:14:09.850Z,6.52
2023-03-10T16:16:36.375Z,6.52
2023-03-10T16:19:03.068Z,6.44
2023-03-10T16:21:29.556Z,6.46
2023-03-10T16:23:57.505Z,6.51
2023-03-10T16:26:24.690Z,6.64
2023-03-10T16:28:54.195Z,6.54
2023-03-10T16:31:22.960Z,6.62
2023-03-10T16:33:51.104Z,6.63
2023-03-10T16:36:20.155Z,6.64
2023-03-10T16:38:47.294Z,6.64
2023-03-10T16:41:13.952Z,6.65
2023-03-10T16:43:41.696Z,6.66
2023-03-10T16:46:14.794Z,6.72
2023-03-10T16:48:46.361Z,6.71
2023-03-10T16:51:31.201Z,6.57
2023-03-10T16:54:09.926Z,6.61
2023-03-10T16:56:41.131Z,6.69
2023-03-10T16:59:07.880Z,6.69
2023-03-10T17:01:34.429Z,6.54
2023-03-10T17:04:01.086Z,6.45
2023-03-10T17:06:30.568Z,6.32
2023-03-10T17:08:57.871Z,6.32
2023-03-10T17:11:28.133Z,6.37
2023-03-10T17:13:58.284Z,6.17
2023-03-10T17:16:28.350Z,6.19
2023-03-10T17:19:00.171Z,6.12
2023-03-10T17:21:28.802Z,6.06
2023-03-10T17:23:55.966Z,6.11
2023-03-10T17:26:22.795Z,6.07
2023-03-10T17:28:51.175Z,6.06
2023-03-10T17:31:28.356Z,5.88
2023-03-10T17:33:57.259Z,5.75
2023-03-10T17:36:23.846Z,5.65
2023-03-10T17:38:58.275Z,5.57
2023-03-10T17:41:25.239Z,5.39
2023-03-10T17:43:53.723Z,5.39
2023-03-10T17:46:23.077Z,5.35
2023-03-10T17:48:51.764Z,5.28
2023-03-10T17:51:21.346Z,5.29
2023-03-10T17:53:48.116Z,5.35
2023-03-10T17:56:16.244Z,5.46
2023-03-10T17:58:43.529Z,5.46
2023-03-10T18:01:15.761Z,5.33
2023-03-10T18:03:42.622Z,5.31
2023-03-10T18:06:14.473Z,5.15
2023-03-10T18:08:41.288Z,4.99
2023-03-10T18:11:08.590Z,4.98
2023-03-10T18:13:35.587Z,4.88
2023-03-10T18:16:02.353Z,4.56
2023-03-10T18:18:28.941Z,4.51
2023-03-10T18:20:55.460Z,4.34
2023-03-10T18:23:23.209Z,4.35
2023-03-10T18:25:50.412Z,4.23
2023-03-10T18:28:19.300Z,3.96
2023-03-10T18:30:50.057Z,3.65
2023-03-10T18:33:16.562Z,3.38
2023-03-10T18:35:45.085Z,3.20
2023-03-10T18:38:16.012Z,3.16
2023-03-10T18:40:43.024Z,3.03
2023-03-10T18:43:10.390Z,3.04
2023-03-10T18:45:39.368Z,2.63
2023-03-10T18:48:07.545Z,2.38
2023-03-10T18:50:34.085Z,2.28
2023-03-10T18:53:00.820Z,2.21
2023-03-10T18:55:27.382Z,2.22
2023-03-10T18:57:53.801Z,2.11
2023-03-10T19:00:21.362Z,1.87
2023-03-10T19:02:48.044Z,1.84
2023-03-10T19:05:16.401Z,1.85
2023-03-10T19:07:42.871Z,1.88
2023-03-10T19:10:13.141Z,1.59
2023-03-10T19:12:40.076Z,1.59
2023-03-10T19:15:09.064Z,1.60
2023-03-10T19:17:37.563Z,1.48
2023-03-10T19:20:07.364Z,1.48
2023-03-10T19:22:34.896Z,1.39
2023-03-10T19:25:03.527Z,1.36
2023-03-10T19:27:30.427Z,1.36
2023-03-10T19:29:57.459Z,1.44
2023-03-10T19:32:24.803Z,1.36
2023-03-10T19:34:51.365Z,1.52
2023-03-10T19:37:17.906Z,1.26
2023-03-10T19:39:44.548Z,1.38
2023-03-10T19:42:11.093Z,1.37
2023-03-10T19:44:40.704Z,1.19
2023-03-10T19:47:07.390Z,1.22
2023-03-10T19:49:34.238Z,1.27
2023-03-10T19:52:01.733Z,1.20
2023-03-10T19:54:28.270Z,1.21
2023-03-10T19:56:55.078Z,1.13
2023-03-10T19:59:21.656Z,1.14
2023-03-10T20:01:49.417Z,1.07
2023-03-10T20:04:16.146Z,0.94
2023-03-10T20:06:42.770Z,1.01
2023-03-10T20:09:10.561Z,1.05
2023-03-10T20:11:40.958Z,1.04
2023-03-10T20:14:08.169Z,1.02
2023-03-10T20:16:34.675Z,1.07
2023-03-10T20:19:01.162Z,1.09
2023-03-10T20:21:27.798Z,1.10
2023-03-10T20:23:56.164Z,1.04
2023-03-10T20:26:23.332Z,1.04
2023-03-10T20:29:11.268Z,1.04
2023-03-10T20:31:37.877Z,1.08
2023-03-10T20:34:06.535Z,1.07
2023-03-10T20:36:34.174Z,1.10
2023-03-10T20:39:00.818Z,1.02
2023-03-10T20:41:27.340Z,1.03
2023-03-10T20:43:53.863Z,0.98
2023-03-10T20:46:25.729Z,0.96
2023-03-10T20:48:55.855Z,1.01
2023-03-10T20:51:23.407Z,1.00
2023-03-10T20:53:56.868Z,0.95
2023-03-10T20:56:25.468Z,1.02
2023-03-10T20:59:04.088Z,0.99
2023-03-10T21:01:34.138Z,1.01
2023-03-10T21:04:00.710Z,1.03
2023-03-10T21:06:27.463Z,1.06
2023-03-10T21:08:54.197Z,1.15
2023-03-10T21:11:21.757Z,1.08
2023-03-10T21:13:48.395Z,1.01
2023-03-10T21:16:20.668Z,1.02
2023-03-10T21:18:47.552Z,1.03
2023-03-10T21:21:17.175Z,1.10
2023-03-10T21:23:43.786Z,1.29
2023-03-10T21:26:16.513Z,1.16
2023-03-10T21:28:43.603Z,1.03
2023-03-10T21:31:11.561Z,0.98
2023-03-10T21:33:38.330Z,0.68
2023-03-10T21:36:05.142Z,1.08
2023-03-10T21:38:32.091Z,1.12
2023-03-10T21:40:59.030Z,1.15
2023-03-10T21:43:27.372Z,0.99
2023-03-10T21:45:54.063Z,1.17
2023-03-10T21:48:20.558Z,1.03
2023-03-10T21:50:54.358Z,1.07
2023-03-10T21:53:28.219Z,1.28
2023-03-10T21:55:54.762Z,1.19
2023-03-10T21:58:23.478Z,1.21
2023-03-10T22:00:50.205Z,1.09
2023-03-10T22:03:17.454Z,0.96
2023-03-10T22:05:46.470Z,0.92
2023-03-10T22:08:13.015Z,1.03
2023-03-10T22:10:39.644Z,1.06
2023-03-10T22:13:06.310Z,1.13
2023-03-10T22:15:32.929Z,1.19
2023-03-10T22:17:59.701Z,1.16
2023-03-10T22:20:27.675Z,1.06
2023-03-10T22:22:54.961Z,0.97
2023-03-10T22:25:22.112Z,0.67
2023-03-10T22:27:56.330Z,0.69
2023-03-10T22:30:27.647Z,0.75
2023-03-10T22:32:54.963Z,0.92
2023-03-10T22:35:22.371Z,1.18
2023-03-10T22:37:49.028Z,1.00
2023-03-10T22:40:20.156Z,1.11
2023-03-10T22:42:47.383Z,0.92
2023-03-10T22:45:19.897Z,0.92
2023-03-10T22:47:46.880Z,0.88
2023-03-10T22:50:19.941Z,0.78
2023-03-10T22:52:46.417Z,1.01
2023-03-10T22:55:18.659Z,0.84
2023-03-10T22:57:46.374Z,1.05
2023-03-10T23:00:19.419Z,1.09
2023-03-10T23:02:53.816Z,1.21
2023-03-10T23:05:21.934Z,1.08
2023-03-10T23:07:48.695Z,1.16
2023-03-10T23:10:19.233Z,0.94
2023-03-10T23:12:45.927Z,0.66
2023-03-10T23:15:24.730Z,0.73
2023-03-10T23:17:52.865Z,0.73
2023-03-10T23:20:19.632Z,0.69
2023-03-10T23:22:46.660Z,0.62
2023-03-10T23:25:22.526Z,0.67
2023-03-10T23:27:49.116Z,0.51
2023-03-10T23:30:16.439Z,0.57
2023-03-10T23:32:47.959Z,0.63
2023-03-10T23:35:16.636Z,0.69
2023-03-10T23:37:44.605Z,0.65
2023-03-10T23:40:14.967Z,0.80
2023-03-10T23:42:42.657Z,0.80
2023-03-10T23:45:12.817Z,0.94
2023-03-10T23:47:40.722Z,1.01
2023-03-10T23:50:09.209Z,0.69
2023-03-10T23:52:35.843Z,0.81
2023-03-10T23:55:05.135Z,0.68
2023-03-10T23:57:33.842Z,0.74
